Time;durP1;ratioP1;P1;durP2;ratioP2;P2;SDS_P1;SDS_P2;PMS_P1;PMS_P2;Temp;Humidity;BMP_temperature;BMP_pressure;BME280_temperature;BME280_humidity;BME280_pressure;Samples;Min_cycle;Max_cycle;Signal;HPM_P1;HPM_P2
2023/09/05 00:00:10;;;;;;;12.82;10.65;;;17.40;99.90;;;;;;5098606;28;20098;-72
2023/09/05 00:02:38;;;;;;;12.68;9.43;;;18.10;99.90;;;;;;5098585;28;20085;-72
2023/09/05 00:05:07;;;;;;;14.52;10.65;;;17.60;99.90;;;;;;5081718;28;20036;-72
2023/09/05 00:07:36;;;;;;;15.57;10.63;;;15.80;99.90;;;;;;5081750;28;20031;-72
2023/09/05 00:10:13;;;;;;;13.85;10.55;;;15.90;99.90;;;;;;5098373;28;20039;-72
2023/09/05 00:12:43;;;;;;;15.55;11.07;;;15.80;99.90;;;;;;5098566;28;20395;-73
2023/09/05 00:15:14;;;;;;;13.82;10.82;;;16.50;99.90;;;;;;5098299;28;20040;-72
2023/09/05 00:17:41;;;;;;;13.48;10.85;;;17.20;99.90;;;;;;5098228;28;20046;-73
2023/09/05 00:20:08;;;;;;;19.20;11.18;;;18.10;99.90;;;;;;5064726;28;20116;-72
2023/09/05 00:22:34;;;;;;;16.65;11.27;;;17.00;99.90;;;;;;5081539;28;20039;-72
2023/09/05 00:25:00;;;;;;;12.10;10.23;;;18.10;99.90;;;;;;5081400;28;20044;-72
2023/09/05 00:27:26;;;;;;;15.48;12.55;;;;;;;;;;5097925;28;20036;-73
2023/09/05 00:29:52;;;;;;;17.45;11.95;;;;;;;;;;5098100;28;20043;-72
2023/09/05 00:32:18;;;;;;;13.25;10.85;;;17.50;99.90;;;;;;5081565;28;20047;-72
2023/09/05 00:34:45;;;;;;;14.13;10.82;;;17.00;99.90;;;;;;5081510;28;20375;-72
2023/09/05 00:37:10;;;;;;;17.25;12.50;;;17.30;99.90;;;;;;5097899;28;20467;-72
2023/09/05 00:39:40;;;;;;;14.43;11.98;;;16.40;99.90;;;;;;5116059;28;20090;-72
2023/09/05 00:42:10;;;;;;;13.30;11.23;;;16.30;99.90;;;;;;5097828;28;20115;-73
2023/09/05 00:44:36;;;;;;;13.48;11.25;;;;;;;;;;5097703;28;20127;-72
2023/09/05 00:47:04;;;;;;;19.17;11.65;;;16.70;99.90;;;;;;5080963;28;20036;-72
2023/09/05 00:49:39;;;;;;;15.60;11.77;;;16.70;99.90;;;;;;5097923;28;20040;-72
2023/09/05 00:52:06;;;;;;;14.75;10.70;;;16.10;99.90;;;;;;5097471;28;20040;-72
2023/09/05 00:54:33;;;;;;;13.93;11.95;;;17.60;99.90;;;;;;5097900;28;20047;-72
2023/09/05 00:56:59;;;;;;;13.68;11.45;;;;;;;;;;5097444;28;20052;-72
2023/09/05 00:59:25;;;;;;;14.75;11.98;;;17.20;99.90;;;;;;5096552;28;20514;-72
2023/09/05 01:01:52;;;;;;;14.85;11.55;;;;;;;;;;5097530;28;20165;-72
2023/09/05 01:04:18;;;;;;;18.17;11.52;;;17.50;99.90;;;;;;5097482;28;20035;-72
2023/09/05 01:06:56;;;;;;;18.08;11.10;;;16.20;99.90;;;;;;5097197;28;20445;-72
2023/09/05 01:09:44;;;;;;;13.25;10.63;;;15.70;99.90;;;;;;5097407;28;20046;-72
2023/09/05 01:12:11;;;;;;;15.27;11.05;;;;;;;;;;5097232;28;20050;-72
2023/09/05 01:14:36;;;;;;;14.98;10.98;;;17.20;99.90;;;;;;5097186;28;20062;-72
2023/09/05 01:17:05;;;;;;;16.25;10.45;;;16.10;99.90;;;;;;5097097;28;20043;-72
2023/09/05 01:19:34;;;;;;;13.70;10.30;;;17.00;99.90;;;;;;5097299;28;20050;-72
2023/09/05 01:22:15;;;;;;;13.60;10.18;;;16.50;99.90;;;;;;5097536;28;20105;-72
2023/09/05 01:24:41;;;;;;;13.77;10.82;;;;;;;;;;5097147;28;20070;-72
2023/09/05 01:27:08;;;;;;;17.52;11.55;;;15.20;99.90;;;;;;5097133;28;20043;-72
2023/09/05 01:29:39;;;;;;;14.10;10.80;;;;;;;;;;5080280;28;20121;-72
2023/09/05 01:32:11;;;;;;;15.82;10.50;;;16.50;99.90;;;;;;5097284;28;20103;-72
2023/09/05 01:34:38;;;;;;;15.43;10.32;;;17.10;99.90;;;;;;5097104;28;20039;-72
2023/09/05 01:37:04;;;;;;;13.77;10.73;;;;;;;;;;5096795;28;20040;-72
2023/09/05 01:39:30;;;;;;;12.98;9.68;;;17.40;99.90;;;;;;5096646;28;20090;-72
2023/09/05 01:42:01;;;;;;;11.63;9.68;;;16.10;99.90;;;;;;5096531;28;20071;-72
2023/09/05 01:44:27;;;;;;;17.42;10.43;;;;;;;;;;5096538;28;20043;-72
2023/09/05 01:46:53;;;;;;;14.63;10.85;;;15.30;99.90;;;;;;5096478;28;20484;-70
2023/09/05 01:49:19;;;;;;;13.52;11.27;;;;;;;;;;5096507;28;20093;-72
2023/09/05 01:51:46;;;;;;;13.45;10.77;;;;;;;;;;5096786;28;20468;-71
2023/09/05 01:54:11;;;;;;;16.58;11.18;;;15.70;99.90;;;;;;5096759;28;20040;-72
2023/09/05 01:56:37;;;;;;;17.25;11.20;;;;;;;;;;5079426;28;20047;-71
2023/09/05 01:59:05;;;;;;;14.00;11.00;;;16.90;99.90;;;;;;5079441;28;20055;-70
2023/09/05 02:01:32;;;;;;;16.15;12.05;;;16.90;99.90;;;;;;5096406;28;20043;-71
2023/09/05 02:03:57;;;;;;;17.05;11.82;;;15.30;99.90;;;;;;5101069;28;20043;-71
2023/09/05 02:06:23;;;;;;;15.65;12.27;;;17.10;99.90;;;;;;5096418;28;20039;-72
2023/09/05 02:08:49;;;;;;;17.60;11.73;;;15.80;99.90;;;;;;5079253;28;20043;-72
2023/09/05 02:11:15;;;;;;;15.20;12.00;;;16.80;99.90;;;;;;5096693;28;20044;-71
2023/09/05 02:13:41;;;;;;;15.98;13.20;;;;;;;;;;5096975;28;20050;-72
2023/09/05 02:16:07;;;;;;;16.48;12.30;;;15.60;99.90;;;;;;5096142;28;20039;-71
2023/09/05 02:18:33;;;;;;;16.75;12.75;;;14.80;99.90;;;;;;5096786;28;20046;-71
2023/09/05 02:21:02;;;;;;;16.80;12.75;;;17.00;99.90;;;;;;5112445;28;20056;-71
2023/09/05 02:23:29;;;;;;;17.35;12.70;;;;;;;;;;5113150;28;20402;-71
2023/09/05 02:25:59;;;;;;;18.35;12.23;;;15.70;99.90;;;;;;5110414;28;20081;-71
2023/09/05 02:28:25;;;;;;;15.80;13.15;;;16.00;99.90;;;;;;5102231;28;20524;-72
2023/09/05 02:30:54;;;;;;;16.50;13.25;;;14.60;99.90;;;;;;5096181;28;20085;-72
2023/09/05 02:33:21;;;;;;;16.25;12.10;;;17.00;99.90;;;;;;5095685;28;20487;-71
2023/09/05 02:35:47;;;;;;;19.15;13.00;;;;;;;;;;5096012;28;20039;-71
2023/09/05 02:38:14;;;;;;;16.17;13.70;;;;;;;;;;5095871;28;20040;-72
2023/09/05 02:40:46;;;;;;;17.40;13.65;;;15.50;99.90;;;;;;5095483;28;20506;-71
2023/09/05 02:43:13;;;;;;;14.30;11.65;;;16.40;99.90;;;;;;5095603;28;20101;-71
2023/09/05 02:45:39;;;;;;;18.17;13.60;;;;;;;;;;5095533;28;20050;-72
2023/09/05 02:48:06;;;;;;;20.77;13.65;;;15.80;99.90;;;;;;5078637;28;20036;-72
2023/09/05 02:50:32;;;;;;;20.15;12.85;;;16.70;99.90;;;;;;5095681;28;20096;-71
2023/09/05 02:52:57;;;;;;;17.00;12.38;;;16.30;99.90;;;;;;5078355;28;20500;-72
2023/09/05 02:55:23;;;;;;;18.02;13.15;;;;;;;;;;5078620;28;20043;-71
2023/09/05 02:57:49;;;;;;;16.05;11.57;;;15.20;99.90;;;;;;5078456;28;20050;-72
2023/09/05 03:00:19;;;;;;;17.52;12.75;;;;;;;;;;5078505;28;20043;-72
2023/09/05 03:02:45;;;;;;;16.60;12.82;;;;;;;;;;5079449;28;20052;-71
2023/09/05 03:05:11;;;;;;;16.08;13.02;;;14.30;99.90;;;;;;5095627;28;20426;-71
2023/09/05 03:07:37;;;;;;;18.35;13.05;;;;;;;;;;5095330;28;20043;-71
2023/09/05 03:10:03;;;;;;;17.30;12.23;;;15.50;99.90;;;;;;5095281;28;20051;-71
2023/09/05 03:12:29;;;;;;;16.85;12.50;;;;;;;;;;5061824;28;20504;-71
2023/09/05 03:14:55;;;;;;;17.00;12.18;;;;;;;;;;5078551;28;20046;-71
2023/09/05 03:17:21;;;;;;;17.67;12.77;;;;;;;;;;5078534;28;20081;-71
2023/09/05 03:19:48;;;;;;;15.50;12.68;;;;;;;;;;5095090;28;20092;-70
2023/09/05 03:22:14;;;;;;;17.58;12.85;;;;;;;;;;5095937;28;20067;-71
2023/09/05 03:24:40;;;;;;;15.73;12.57;;;;;;;;;;5099483;28;20049;-71
2023/09/05 03:27:05;;;;;;;16.27;12.73;;;16.40;99.90;;;;;;5082719;28;20039;-71
2023/09/05 03:29:31;;;;;;;17.65;12.32;;;16.10;99.90;;;;;;5095602;28;20116;-71
2023/09/05 03:31:57;;;;;;;20.95;13.15;;;15.70;99.90;;;;;;5095895;28;20048;-71
2023/09/05 03:34:23;;;;;;;16.45;12.60;;;;;;;;;;5095823;28;20126;-71
2023/09/05 03:36:49;;;;;;;18.50;13.50;;;14.20;99.90;;;;;;5095853;28;20177;-71
2023/09/05 03:39:16;;;;;;;16.70;13.23;;;;;;;;;;5078734;28;20498;-71
2023/09/05 03:41:42;;;;;;;19.67;13.25;;;;;;;;;;5095869;28;20447;-71
2023/09/05 03:44:08;;;;;;;19.77;13.27;;;;;;;;;;5078650;28;20121;-71
2023/09/05 03:46:34;;;;;;;15.18;11.15;;;15.90;99.90;;;;;;5096039;28;20486;-71
2023/09/05 03:49:00;;;;;;;16.40;12.27;;;16.10;99.90;;;;;;5078656;28;20127;-71
2023/09/05 03:51:28;;;;;;;18.75;13.75;;;15.90;99.90;;;;;;5078880;28;20036;-71
2023/09/05 03:53:54;;;;;;;19.67;13.15;;;;;;;;;;5096023;28;20047;-77
2023/09/05 03:56:21;;;;;;;19.05;12.55;;;;;;;;;;5095633;28;20063;-77
2023/09/05 03:58:47;;;;;;;20.15;14.13;;;;;;;;;;5095659;28;20164;-71
2023/09/05 04:01:17;;;;;;;18.65;13.15;;;16.20;99.90;;;;;;5095118;28;20047;-71
2023/09/05 04:03:45;;;;;;;23.88;13.43;;;15.60;99.90;;;;;;5078568;28;20043;-71
2023/09/05 04:06:11;;;;;;;16.70;13.23;;;15.30;99.90;;;;;;5078240;28;20039;-71
2023/09/05 04:08:37;;;;;;;18.92;13.10;;;;;;;;;;5078317;28;20488;-71
2023/09/05 04:11:03;;;;;;;16.67;12.77;;;16.20;99.90;;;;;;5095042;28;20053;-71
2023/09/05 04:13:29;;;;;;;20.60;13.35;;;15.60;99.90;;;;;;5095051;28;20040;-71
2023/09/05 04:15:55;;;;;;;17.15;13.25;;;;;;;;;;5095052;28;20036;-71
2023/09/05 04:18:21;;;;;;;17.92;12.55;;;15.00;99.90;;;;;;5095235;28;20109;-71
2023/09/05 04:20:47;;;;;;;17.52;13.38;;;;;;;;;;5078011;28;20479;-71
2023/09/05 04:23:13;;;;;;;17.80;12.30;;;;;;;;;;5077862;28;20036;-71
2023/09/05 04:25:42;;;;;;;20.55;14.27;;;13.90;99.90;;;;;;5094825;28;20040;-71
2023/09/05 04:28:08;;;;;;;21.40;13.77;;;13.80;99.90;;;;;;5094790;28;20055;-71
2023/09/05 04:30:34;;;;;;;18.05;13.27;;;14.80;99.90;;;;;;5094718;28;20052;-71
2023/09/05 04:33:03;;;;;;;18.02;13.00;;;;;;;;;;5094172;28;20048;-71
2023/09/05 04:35:29;;;;;;;16.50;12.32;;;;;;;;;;5093688;28;20133;-70
2023/09/05 04:37:55;;;;;;;20.58;13.18;;;13.80;99.90;;;;;;5077812;28;20551;-71
2023/09/05 04:40:21;;;;;;;18.40;13.25;;;;;;;;;;5094743;28;20040;-71
2023/09/05 04:42:47;;;;;;;17.35;13.45;;;14.40;99.90;;;;;;5094858;28;20476;-71
2023/09/05 04:45:13;;;;;;;18.88;13.55;;;;;;;;;;5095009;28;20039;-77
2023/09/05 04:47:39;;;;;;;20.10;13.00;;;;;;;;;;5096602;28;20042;-78
2023/09/05 04:50:08;;;;;;;16.98;12.95;;;15.90;99.90;;;;;;5078189;28;20079;-77
2023/09/05 04:52:35;;;;;;;17.98;12.90;;;;;;;;;;5094847;28;20040;-77
2023/09/05 04:55:01;;;;;;;22.05;13.57;;;;;;;;;;5094906;28;20047;-77
2023/09/05 04:57:27;;;;;;;19.27;14.18;;;;;;;;;;5095180;28;20040;-77
2023/09/05 04:59:57;;;;;;;20.60;14.43;;;;;;;;;;5094647;28;20087;-77
2023/09/05 05:02:27;;;;;;;19.10;14.05;;;13.80;99.90;;;;;;5094873;28;20040;-77
2023/09/05 05:04:54;;;;;;;19.48;14.07;;;14.90;99.90;;;;;;5094838;28;20080;-77
2023/09/05 05:07:20;;;;;;;18.02;13.30;;;14.90;99.90;;;;;;5094918;28;20044;-77
2023/09/05 05:09:47;;;;;;;19.75;14.13;;;15.00;99.90;;;;;;5078035;28;20055;-78
2023/09/05 05:12:13;;;;;;;20.95;14.15;;;;;;;;;;5094571;28;20048;-78
2023/09/05 05:14:39;;;;;;;19.10;13.90;;;;;;;;;;5095723;28;20043;-78
2023/09/05 05:17:11;;;;;;;22.42;14.15;;;;;;;;;;5077628;28;20561;-77
2023/09/05 05:19:37;;;;;;;20.80;13.45;;;;;;;;;;5094422;28;20093;-78
2023/09/05 05:22:03;;;;;;;19.70;13.90;;;14.30;99.90;;;;;;5077588;28;20498;-77
2023/09/05 05:24:29;;;;;;;18.40;14.35;;;14.10;99.90;;;;;;5094668;28;20036;-77
2023/09/05 05:26:54;;;;;;;20.88;12.50;;;15.60;99.90;;;;;;5094333;28;20446;-78
2023/09/05 05:29:20;;;;;;;18.08;12.73;;;;;;;;;;5094028;28;20116;-77
2023/09/05 05:31:48;;;;;;;19.23;13.63;;;;;;;;;;5077963;28;20052;-77
2023/09/05 05:34:14;;;;;;;20.77;14.80;;;15.50;99.90;;;;;;5077516;28;20500;-78
2023/09/05 05:36:41;;;;;;;21.55;13.98;;;;;;;;;;5094841;28;20044;-77
2023/09/05 05:39:06;;;;;;;25.33;12.93;;;16.20;99.90;;;;;;5090353;28;20032;-77
2023/09/05 05:41:35;;;;;;;19.38;13.05;;;15.10;99.90;;;;;;5110870;28;20047;-77
2023/09/05 05:44:01;;;;;;;18.73;13.15;;;;;;;;;;5112264;28;20046;-76
2023/09/05 05:46:27;;;;;;;19.15;12.77;;;15.50;99.90;;;;;;5110332;28;20104;-76
2023/09/05 05:48:56;;;;;;;19.08;14.20;;;;;;;;;;5090907;28;20055;-76
2023/09/05 05:51:22;;;;;;;22.27;13.38;;;;;;;;;;5096361;28;20040;-77
2023/09/05 05:53:49;;;;;;;23.75;13.93;;;;;;;;;;5114072;28;20087;-77
2023/09/05 05:56:15;;;;;;;20.85;14.68;;;15.70;99.90;;;;;;5110064;28;20051;-77
2023/09/05 05:58:41;;;;;;;21.27;13.35;;;;;;;;;;5092692;28;20103;-77
2023/09/05 06:01:07;;;;;;;20.42;13.13;;;;;;;;;;5070629;28;20073;-77
2023/09/05 06:03:37;;;;;;;21.20;13.73;;;;;;;;;;5084336;28;20047;-76
2023/09/05 06:06:03;;;;;;;20.75;14.27;;;;;;;;;;5093279;28;20040;-76
2023/09/05 06:08:29;;;;;;;19.40;13.75;;;;;;;;;;5059637;28;20169;-77
2023/09/05 06:10:56;;;;;;;20.95;14.10;;;;;;;;;;5092818;28;20050;-77
2023/09/05 06:13:22;;;;;;;18.95;13.68;;;;;;;;;;5093031;28;20044;-77
2023/09/05 06:15:48;;;;;;;21.98;14.38;;;15.60;99.90;;;;;;5093002;28;20051;-77
2023/09/05 06:18:14;;;;;;;22.48;13.98;;;15.10;99.90;;;;;;5075903;28;20044;-77
2023/09/05 06:20:39;;;;;;;19.95;14.00;;;14.50;99.90;;;;;;5092989;28;20047;-77
2023/09/05 06:23:05;;;;;;;21.55;14.27;;;;;;;;;;5093414;28;20127;-77
2023/09/05 06:25:31;;;;;;;21.63;14.90;;;14.80;99.90;;;;;;5093014;28;20357;-77
2023/09/05 06:27:58;;;;;;;21.75;14.88;;;16.70;99.90;;;;;;5059141;28;20059;-77
2023/09/05 06:30:24;;;;;;;25.70;14.20;;;;;;;;;;5093034;28;20526;-78
2023/09/05 06:32:50;;;;;;;18.83;13.57;;;16.20;99.90;;;;;;5092698;28;20484;-77
2023/09/05 06:35:16;;;;;;;20.40;14.13;;;16.20;99.90;;;;;;5092617;28;20093;-77
2023/09/05 06:37:42;;;;;;;26.60;14.20;;;;;;;;;;5075720;28;20451;-77
2023/09/05 06:40:12;;;;;;;21.85;14.52;;;15.60;99.90;;;;;;5092332;28;20055;-77
2023/09/05 06:42:39;;;;;;;20.08;14.25;;;16.00;99.90;;;;;;5092573;28;20040;-77
2023/09/05 06:45:06;;;;;;;22.48;15.15;;;16.30;99.90;;;;;;5092636;28;20055;-77
2023/09/05 06:47:32;;;;;;;20.38;14.18;;;;;;;;;;5092677;28;20047;-78
2023/09/05 06:49:58;;;;;;;22.15;15.23;;;;;;;;;;5092304;28;20044;-77
2023/09/05 06:52:24;;;;;;;20.55;14.63;;;;;;;;;;5092245;28;20036;-77
2023/09/05 06:54:50;;;;;;;20.45;14.35;;;;;;;;;;5092243;28;20071;-78
2023/09/05 06:57:17;;;;;;;22.67;14.35;;;16.00;99.90;;;;;;5091618;28;20044;-77
2023/09/05 06:59:43;;;;;;;21.60;13.75;;;;;;;;;;5092292;28;20127;-77
2023/09/05 07:02:10;;;;;;;25.00;15.95;;;;;;;;;;5075300;28;20223;-77
2023/09/05 07:04:36;;;;;;;20.52;14.25;;;15.60;99.90;;;;;;5092292;28;20043;-77
2023/09/05 07:07:05;;;;;;;26.95;15.15;;;16.60;99.90;;;;;;5093573;28;20127;-78
2023/09/05 07:09:31;;;;;;;20.15;14.10;;;;;;;;;;5098256;28;20044;-77
2023/09/05 07:11:57;;;;;;;23.85;13.93;;;16.90;99.90;;;;;;5099729;28;20040;-77
2023/09/05 07:14:24;;;;;;;23.38;14.90;;;;;;;;;;5077630;28;20039;-77
2023/09/05 07:16:50;;;;;;;22.35;13.70;;;;;;;;;;5094042;28;20040;-71
2023/09/05 07:19:17;;;;;;;23.30;15.52;;;17.40;99.90;;;;;;5091906;28;20488;-71
2023/09/05 07:21:43;;;;;;;18.42;13.48;;;;;;;;;;5091923;28;20488;-70
2023/09/05 07:24:11;;;;;;;18.42;13.38;;;17.60;99.90;;;;;;5092158;28;20244;-71
2023/09/05 07:26:38;;;;;;;20.70;13.60;;;;;;;;;;5092189;28;20044;-71
2023/09/05 07:29:13;;;;;;;20.75;13.27;;;17.30;99.90;;;;;;5091645;28;20492;-71
2023/09/05 07:31:40;;;;;;;21.33;14.55;;;16.90;99.90;;;;;;5075811;28;20099;-77
2023/09/05 07:34:07;;;;;;;20.40;13.93;;;17.00;99.90;;;;;;5095260;28;20043;-77
2023/09/05 07:36:35;;;;;;;23.75;13.52;;;17.20;99.90;;;;;;5077894;28;20048;-77
2023/09/05 07:39:03;;;;;;;23.23;13.60;;;17.00;99.90;;;;;;5092776;28;20468;-78
2023/09/05 07:41:30;;;;;;;17.70;12.48;;;17.40;99.90;;;;;;5076732;28;20076;-77
2023/09/05 07:43:56;;;;;;;20.50;13.23;;;;;;;;;;5095606;28;20036;-76
2023/09/05 07:46:22;;;;;;;21.83;13.23;;;16.20;99.90;;;;;;5095023;28;20442;-77
2023/09/05 07:48:48;;;;;;;21.58;12.23;;;;;;;;;;5060144;28;20043;-77
2023/09/05 07:51:14;;;;;;;19.58;12.68;;;17.50;99.90;;;;;;5093845;28;20043;-77
2023/09/05 07:53:51;;;;;;;16.50;11.93;;;17.30;99.90;;;;;;5093604;28;20049;-77
2023/09/05 07:56:17;;;;;;;21.38;12.57;;;;;;;;;;5093283;28;20043;-77
2023/09/05 07:58:43;;;;;;;17.42;12.75;;;;;;;;;;5092551;28;20499;-77
2023/09/05 08:01:09;;;;;;;19.15;12.30;;;16.70;99.90;;;;;;5092228;28;20126;-77
2023/09/05 08:03:38;;;;;;;17.15;12.23;;;17.40;99.90;;;;;;5092475;28;20040;-77
2023/09/05 08:06:05;;;;;;;18.67;12.48;;;;;;;;;;5075213;28;20144;-77
2023/09/05 08:08:31;;;;;;;17.45;12.43;;;;;;;;;;5093215;28;20086;-77
2023/09/05 08:10:57;;;;;;;16.80;12.10;;;;;;;;;;5095653;28;20388;-77
2023/09/05 08:13:24;;;;;;;17.67;11.60;;;;;;;;;;5095772;28;20059;-77
2023/09/05 08:15:50;;;;;;;16.50;11.57;;;18.00;99.90;;;;;;5095823;28;20047;-77
2023/09/05 08:18:17;;;;;;;23.58;12.43;;;;;;;;;;5095135;28;20052;-77
2023/09/05 08:20:43;;;;;;;16.27;11.57;;;;;;;;;;5095150;28;20403;-77
2023/09/05 08:23:10;;;;;;;17.23;11.88;;;18.80;99.90;;;;;;5095307;28;20391;-77
2023/09/05 08:25:37;;;;;;;13.13;10.25;;;19.50;99.90;;;;;;5095320;28;20052;-77
2023/09/05 08:28:03;;;;;;;13.73;10.10;;;19.40;99.90;;;;;;5098147;28;20104;-77
2023/09/05 08:30:29;;;;;;;12.57;9.60;;;19.60;99.90;;;;;;5098397;28;20047;-77
2023/09/05 08:32:56;;;;;;;12.55;9.13;;;;;;;;;;5098844;28;20036;-77
2023/09/05 08:35:22;;;;;;;14.93;9.73;;;;;;;;;;5081316;28;20381;-76
2023/09/05 08:37:48;;;;;;;15.05;9.45;;;;;;;;;;5098334;28;20050;-77
2023/09/05 08:40:15;;;;;;;18.35;9.85;;;19.90;99.90;;;;;;5098142;28;20040;-77
2023/09/05 08:42:44;;;;;;;16.13;9.63;;;19.20;99.90;;;;;;5098192;28;20597;-77
2023/09/05 08:45:15;;;;;;;15.98;8.95;;;19.20;99.90;;;;;;5098272;28;20337;-78
2023/09/05 08:47:46;;;;;;;12.65;8.60;;;19.60;99.90;;;;;;5098297;28;20039;-78
2023/09/05 08:50:13;;;;;;;14.52;10.02;;;;;;;;;;5047774;28;20135;-78
2023/09/05 08:52:42;;;;;;;13.55;9.07;;;20.00;99.90;;;;;;5098090;28;20047;-71
2023/09/05 08:55:09;;;;;;;14.13;9.60;;;19.80;99.90;;;;;;5097957;28;20043;-71
2023/09/05 08:57:38;;;;;;;13.45;9.40;;;20.50;99.90;;;;;;5098316;28;20066;-71
2023/09/05 09:00:06;;;;;;;13.82;8.68;;;20.30;99.90;;;;;;5098360;28;20445;-71
2023/09/05 09:02:35;;;;;;;12.45;8.13;;;20.00;99.90;;;;;;5098069;28;20506;-71
2023/09/05 09:05:01;;;;;;;13.60;7.88;;;20.80;99.90;;;;;;5098417;28;20116;-71
2023/09/05 09:07:27;;;;;;;10.65;7.22;;;20.90;99.90;;;;;;5092728;28;20491;-72
2023/09/05 09:09:54;;;;;;;10.45;6.70;;;20.40;99.90;;;;;;5107618;28;20039;-72
2023/09/05 09:12:33;;;;;;;11.63;6.22;;;21.00;99.90;;;;;;5117788;28;20650;-71
2023/09/05 09:15:12;;;;;;;12.52;6.88;;;20.70;99.90;;;;;;5115897;28;20040;-73
2023/09/05 09:17:42;;;;;;;10.68;6.28;;;20.50;99.90;;;;;;5098305;28;20048;-71
2023/09/05 09:20:12;;;;;;;9.80;5.65;;;21.10;99.90;;;;;;5097616;28;20440;-70
2023/09/05 09:22:42;;;;;;;9.05;5.15;;;20.80;99.90;;;;;;5093921;28;20051;-71
2023/09/05 09:25:14;;;;;;;9.77;4.90;;;20.80;99.90;;;;;;5099465;28;20040;-71
2023/09/05 09:27:43;;;;;;;8.10;4.78;;;21.30;99.90;;;;;;5080588;28;20046;-71
2023/09/05 09:30:09;;;;;;;9.80;4.45;;;21.50;99.90;;;;;;5077429;28;20043;-72
2023/09/05 09:32:39;;;;;;;9.00;4.35;;;21.80;99.90;;;;;;5093704;28;20040;-72
2023/09/05 09:35:06;;;;;;;6.05;3.97;;;22.10;99.90;;;;;;5076881;28;20031;-72
2023/09/05 09:37:33;;;;;;;8.88;4.40;;;21.90;99.90;;;;;;5093717;28;20071;-72
2023/09/05 09:40:01;;;;;;;5.68;3.92;;;22.10;99.90;;;;;;5076543;28;20051;-72
2023/09/05 09:42:27;;;;;;;7.63;3.70;;;22.10;99.90;;;;;;5076781;28;20476;-71
2023/09/05 09:44:54;;;;;;;4.60;3.55;;;22.20;99.90;;;;;;5093535;28;20044;-78
2023/09/05 09:47:20;;;;;;;8.73;3.83;;;21.70;99.90;;;;;;5093582;28;20523;-78
2023/09/05 09:49:51;;;;;;;5.90;3.90;;;22.20;99.90;;;;;;5093522;28;20130;-71
2023/09/05 09:52:21;;;;;;;6.73;3.43;;;23.10;99.90;;;;;;5093326;28;20105;-71
2023/09/05 09:54:51;;;;;;;11.27;3.72;;;22.60;99.90;;;;;;5077404;28;20432;-71
2023/09/05 09:57:33;;;;;;;7.70;3.33;;;22.40;99.10;;;;;;5093554;28;20040;-71
2023/09/05 10:00:07;;;;;;;5.05;2.60;;;22.80;99.90;;;;;;5093194;28;20048;-71
2023/09/05 10:02:34;;;;;;;4.50;3.42;;;23.40;99.90;;;;;;5093260;28;20047;-71
2023/09/05 10:05:00;;;;;;;4.60;3.20;;;;;;;;;;5059479;28;20066;-71
2023/09/05 10:07:26;;;;;;;5.82;3.17;;;22.70;99.90;;;;;;5094158;28;20046;-71
2023/09/05 10:09:52;;;;;;;4.22;3.10;;;23.30;99.90;;;;;;5076336;28;20054;-71
2023/09/05 10:12:20;;;;;;;5.45;3.05;;;22.80;99.90;;;;;;5092926;28;20123;-71
2023/09/05 10:14:48;;;;;;;9.23;3.90;;;22.70;99.90;;;;;;5076467;28;20483;-71
2023/09/05 10:17:15;;;;;;;6.50;3.20;;;23.30;97.60;;;;;;5093149;28;20052;-71
2023/09/05 10:19:43;;;;;;;7.60;3.53;;;23.40;97.80;;;;;;5075827;28;20044;-71
2023/09/05 10:22:11;;;;;;;5.68;3.55;;;23.80;99.90;;;;;;5075768;28;20040;-71
2023/09/05 10:24:38;;;;;;;6.47;3.53;;;23.70;97.70;;;;;;5092831;28;20455;-70
2023/09/05 10:27:04;;;;;;;4.88;3.15;;;24.00;99.90;;;;;;5075945;28;20115;-71
2023/09/05 10:29:44;;;;;;;5.53;3.00;;;23.90;96.40;;;;;;5092723;28;20428;-71
2023/09/05 10:32:14;;;;;;;6.00;3.40;;;24.30;99.90;;;;;;5075796;28;20032;-71
2023/09/05 10:34:50;;;;;;;4.88;3.42;;;24.20;99.90;;;;;;5076079;28;20047;-71
2023/09/05 10:37:21;;;;;;;5.25;3.60;;;24.60;96.70;;;;;;5092458;28;20044;-71
2023/09/05 10:40:07;;;;;;;7.32;3.42;;;24.70;99.90;;;;;;5092761;28;20043;-71
2023/09/05 10:42:34;;;;;;;4.57;3.50;;;24.20;96.30;;;;;;5075926;28;20058;-71
2023/09/05 10:45:16;;;;;;;8.30;4.10;;;23.70;97.80;;;;;;5092427;28;20515;-71
2023/09/05 10:47:42;;;;;;;6.10;3.53;;;24.70;99.90;;;;;;5092653;28;20055;-78
2023/09/05 10:50:10;;;;;;;6.53;3.78;;;24.70;96.70;;;;;;5093170;28;20044;-78
2023/09/05 10:52:36;;;;;;;6.38;3.55;;;24.80;99.90;;;;;;5092690;28;20514;-78
2023/09/05 10:55:29;;;;;;;6.57;3.38;;;24.80;95.50;;;;;;5092431;28;20055;-78
2023/09/05 10:57:56;;;;;;;8.32;3.65;;;25.00;95.80;;;;;;5075900;28;20480;-79
2023/09/05 11:00:26;;;;;;;6.93;3.00;;;24.70;99.80;;;;;;5092337;28;20040;-78
2023/09/05 11:02:55;;;;;;;5.30;3.20;;;25.00;96.00;;;;;;5092707;28;20062;-79
2023/09/05 11:05:24;;;;;;;6.65;3.20;;;25.30;99.60;;;;;;5092618;28;20051;-79
2023/09/05 11:07:51;;;;;;;6.55;3.47;;;25.20;95.70;;;;;;5075601;28;20066;-79
2023/09/05 11:10:33;;;;;;;5.68;3.25;;;25.50;99.20;;;;;;5092377;28;20044;-72
2023/09/05 11:13:11;;;;;;;4.60;3.28;;;24.90;96.70;;;;;;5075252;28;20051;-72
2023/09/05 11:15:43;;;;;;;7.63;3.30;;;25.20;95.20;;;;;;5092140;28;20051;-72
2023/09/05 11:18:09;;;;;;;;;;;25.40;95.60;;;;;;5092451;28;20119;-72
2023/09/05 11:20:40;;;;;;;4.85;3.10;;;26.00;97.00;;;;;;5075214;28;19920;-71
2023/09/05 11:23:17;;;;;;;4.72;2.97;;;25.60;98.30;;;;;;5092128;28;20119;-72
2023/09/05 11:25:53;;;;;;;5.22;3.00;;;25.60;98.00;;;;;;5091851;28;20040;-72
2023/09/05 11:28:22;;;;;;;7.15;3.30;;;25.90;98.00;;;;;;5095112;28;20499;-72
2023/09/05 11:30:56;;;;;;;7.43;2.83;;;26.20;97.70;;;;;;5078759;28;20114;-71
2023/09/05 11:33:23;;;;;;;6.45;2.92;;;26.20;97.60;;;;;;5095505;28;20488;-71
2023/09/05 11:35:49;;;;;;;6.60;3.30;;;;;;;;;;5095322;28;20108;-71
2023/09/05 11:38:16;;;;;;;7.72;2.70;;;25.60;97.00;;;;;;5078839;28;20048;-71
2023/09/05 11:40:53;;;;;;;4.07;2.80;;;26.00;97.00;;;;;;5095507;28;20040;-71
2023/09/05 11:43:19;;;;;;;4.97;2.80;;;26.00;96.90;;;;;;5096567;28;20043;-71
2023/09/05 11:45:47;;;;;;;7.65;3.10;;;25.70;96.70;;;;;;5082429;28;20495;-71
2023/09/05 11:48:14;;;;;;;4.90;2.55;;;26.60;96.80;;;;;;5066151;28;20483;-71
2023/09/05 11:50:42;;;;;;;4.35;2.80;;;26.70;96.90;;;;;;5099778;28;20051;-71
2023/09/05 11:53:11;;;;;;;7.53;2.92;;;;;;;;;;5099694;28;20063;-72
2023/09/05 11:55:38;;;;;;;5.78;3.00;;;27.00;96.50;;;;;;5099769;28;20122;-72
2023/09/05 11:58:08;;;;;;;7.00;2.95;;;26.60;94.80;;;;;;5082643;28;20126;-71
2023/09/05 12:00:41;;;;;;;4.82;2.88;;;27.00;96.10;;;;;;5066299;28;20159;-72
2023/09/05 12:03:10;;;;;;;8.07;3.15;;;26.90;95.80;;;;;;5099343;28;20386;-72
2023/09/05 12:05:37;;;;;;;5.40;2.60;;;27.20;95.70;;;;;;5099271;28;20552;-71
2023/09/05 12:08:05;;;;;;;4.82;2.70;;;26.90;91.80;;;;;;5082682;28;20036;-71
2023/09/05 12:10:43;;;;;;;6.70;2.92;;;26.70;93.80;;;;;;5099209;28;20101;-72
2023/09/05 12:13:09;;;;;;;3.38;2.60;;;27.00;95.20;;;;;;5099150;28;20103;-71
2023/09/05 12:15:36;;;;;;;5.97;2.72;;;27.20;91.60;;;;;;5098825;28;20051;-72
2023/09/05 12:18:05;;;;;;;5.95;2.70;;;27.50;95.00;;;;;;5082329;28;20135;-71
2023/09/05 12:20:34;;;;;;;7.78;2.90;;;27.70;92.20;;;;;;5099237;28;20171;-72
2023/09/05 12:23:02;;;;;;;9.00;2.85;;;27.40;94.90;;;;;;5099299;28;20135;-72
2023/09/05 12:25:28;;;;;;;5.63;2.55;;;;;;;;;;5098816;28;20043;-72
2023/09/05 12:28:15;;;;;;;3.70;2.42;;;27.80;94.50;;;;;;5098786;28;20047;-72
2023/09/05 12:30:41;;;;;;;4.05;2.17;;;;;;;;;;5099094;28;20055;-71
2023/09/05 12:33:07;;;;;;;5.10;2.40;;;26.90;91.20;;;;;;5099527;28;20426;-71
2023/09/05 12:35:34;;;;;;;6.30;2.70;;;;;;;;;;5082209;28;20092;-71
2023/09/05 12:38:02;;;;;;;4.03;2.60;;;27.10;93.30;;;;;;5100294;28;20061;-71
2023/09/05 12:40:28;;;;;;;5.05;2.40;;;27.40;93.40;;;;;;5100430;28;20536;-71
2023/09/05 12:42:54;;;;;;;4.95;2.72;;;27.80;93.80;;;;;;5082889;28;20458;-71
2023/09/05 12:45:21;;;;;;;3.08;2.30;;;;;;;;;;5088934;28;20039;-72
2023/09/05 12:47:51;;;;;;;4.25;2.30;;;28.10;92.30;;;;;;5118597;28;20063;-71
2023/09/05 12:50:29;;;;;;;2.85;2.05;;;28.20;88.70;;;;;;5118025;28;20095;-72
2023/09/05 12:53:02;;;;;;;2.72;2.03;;;28.40;92.80;;;;;;5118021;28;20094;-72
2023/09/05 12:55:31;;;;;;;3.30;2.28;;;28.30;92.30;;;;;;5102434;28;20075;-72
2023/09/05 12:57:58;;;;;;;3.28;2.25;;;28.20;92.50;;;;;;5088315;28;20042;-79
2023/09/05 13:00:24;;;;;;;3.85;2.30;;;28.60;92.10;;;;;;5110382;28;20044;-78
2023/09/05 13:02:49;;;;;;;5.55;2.40;;;28.50;92.20;;;;;;5110993;28;20100;-78
2023/09/05 13:05:15;;;;;;;3.55;2.28;;;28.40;91.90;;;;;;5077807;28;20047;-78
2023/09/05 13:07:42;;;;;;;6.20;2.20;;;28.30;92.10;;;;;;5109649;28;20126;-79